Time;durP1;ratioP1;P1;durP2;ratioP2;P2;SDS_P1;SDS_P2;PMS_P1;PMS_P2;Temp;Humidity;BMP_temperature;BMP_pressure;BME280_temperature;BME280_humidity;BME280_pressure;Samples;Min_cycle;Max_cycle;Signal;HPM_P1;HPM_P2
2022/01/11 00:01:07;;;;;;;139.43;48.47;;;;;;;;;;5010250;28;20291;-65
2022/01/11 00:03:36;;;;;;;100.13;43.93;;;;;;;;;;5010130;28;20814;-66
2022/01/11 00:06:17;;;;;;;118.60;44.20;;;;;;;;;;5009187;28;20293;-66
2022/01/11 00:08:45;;;;;;;99.77;42.53;;;;;;;;;;5010008;28;20317;-65
2022/01/11 00:11:11;;;;;;;108.20;45.33;;;;;;;;;;5019898;28;20296;-66
2022/01/11 00:13:40;;;;;;;89.77;40.47;;;;;;;;;;5029178;28;20766;-65
2022/01/11 00:16:07;;;;;;;85.00;39.47;;;;;;;;;;5029074;28;20797;-65
2022/01/11 00:18:33;;;;;;;88.37;38.73;;;;;;;;;;5030005;28;20728;-65
2022/01/11 00:20:59;;;;;;;73.93;38.30;;;;;;;;;;5028553;28;20359;-65
2022/01/11 00:25:53;;;;;;;75.97;38.17;;;;;;;;;;5028018;28;20281;-65
2022/01/11 00:28:19;;;;;;;70.10;37.83;;;;;;;;;;5029369;28;20343;-65
2022/01/11 00:30:47;;;;;;;74.40;36.83;;;;;;;;;;5029324;28;20367;-65
2022/01/11 00:33:18;;;;;;;72.57;37.63;;;;;;;;;;5028244;28;20284;-65
2022/01/11 00:35:49;;;;;;;68.70;37.00;;;;;;;;;;5029064;28;20288;-65
2022/01/11 00:38:16;;;;;;;77.40;37.60;;;;;;;;;;5029601;28;20284;-65
2022/01/11 00:40:56;;;;;;;72.93;37.57;;;;;;;;;;5028137;28;21166;-65
2022/01/11 00:43:23;;;;;;;80.20;40.27;;;;;;;;;;5029292;28;20292;-65
2022/01/11 00:45:50;;;;;;;79.87;36.13;;;;;;;;;;5028297;28;20341;-64
2022/01/11 00:48:16;;;;;;;83.27;39.03;;;;;;;;;;5028940;28;20357;-65
2022/01/11 00:50:43;;;;;;;79.03;39.00;;;;;;;;;;5024415;28;20376;-65
2022/01/11 00:53:09;;;;;;;95.20;42.60;;;;;;;;;;5009498;28;20285;-64
2022/01/11 00:55:36;;;;;;;93.73;41.50;;;;;;;;;;5024670;28;20292;-65
2022/01/11 00:58:02;;;;;;;86.00;39.90;;;;;;;;;;5013576;28;20985;-65
2022/01/11 01:00:29;;;;;;;102.27;41.83;;;;;;;;;;5007784;28;20340;-64
2022/01/11 01:02:55;;;;;;;79.50;38.87;;;;;;;;;;5028475;28;20291;-65
2022/01/11 01:05:21;;;;;;;78.27;37.30;;;;;;;;;;5028992;28;20363;-65
2022/01/11 01:07:48;;;;;;;86.93;38.90;;;;;;;;;;5027510;28;20434;-64
2022/01/11 01:10:24;;;;;;;79.83;38.20;;;;;;;;;;5028781;28;20312;-65
2022/01/11 01:12:51;;;;;;;69.63;35.37;;;;;;;;;;5027452;28;20658;-65
2022/01/11 01:15:18;;;;;;;71.73;36.17;;;;;;;;;;5028910;28;20288;-64
2022/01/11 01:17:44;;;;;;;81.07;38.47;;;;;;;;;;5028495;28;20303;-65
2022/01/11 01:20:10;;;;;;;80.90;36.63;;;;;;;;;;5028639;28;20284;-64
2022/01/11 01:22:36;;;;;;;87.47;41.07;;;;;;;;;;5019330;28;20304;-65
2022/01/11 01:25:03;;;;;;;82.37;39.63;;;;;;;;;;5008743;28;20285;-65
2022/01/11 01:27:29;;;;;;;82.23;39.33;;;;;;;;;;5007493;28;20295;-64
2022/01/11 01:29:55;;;;;;;84.57;39.67;;;;;;;;;;5008456;28;20798;-65
2022/01/11 01:32:21;;;;;;;128.10;46.73;;;;;;;;;;5008581;28;20285;-65
2022/01/11 01:34:49;;;;;;;118.57;47.10;;;;;;;;;;5007443;28;20100;-65
2022/01/11 01:37:15;;;;;;;214.13;56.77;;;;;;;;;;5008808;28;20277;-64
2022/01/11 01:39:42;;;;;;;173.90;51.17;;;;;;;;;;5008942;28;20625;-65
2022/01/11 01:42:11;;;;;;;213.17;54.20;;;;;;;;;;5008939;28;20368;-64
2022/01/11 01:44:37;;;;;;;331.30;67.50;;;;;;;;;;5007193;28;20336;-65
2022/01/11 01:47:04;;;;;;;234.33;51.97;;;;;;;;;;5008658;28;20292;-64
2022/01/11 01:49:33;;;;;;;248.07;55.63;;;;;;;;;;5009503;28;20309;-64
2022/01/11 01:51:59;;;;;;;375.43;72.30;;;;;;;;;;5027739;28;20296;-65
2022/01/11 01:54:25;;;;;;;305.03;66.70;;;;;;;;;;5028183;28;20856;-64
2022/01/11 01:56:51;;;;;;;239.00;58.10;;;;;;;;;;5029503;28;20288;-65
2022/01/11 01:59:17;;;;;;;379.27;68.77;;;;;;;;;;5032477;28;20287;-65
2022/01/11 02:01:48;;;;;;;330.17;66.27;;;;;;;;;;5031871;28;20288;-64
2022/01/11 02:04:15;;;;;;;280.93;60.37;;;;;;;;;;5032416;28;20674;-65
2022/01/11 02:06:41;;;;;;;261.03;56.17;;;;;;;;;;5032510;28;20284;-65
2022/01/11 02:09:08;;;;;;;355.17;66.40;;;;;;;;;;5030251;28;20316;-65
2022/01/11 02:11:34;;;;;;;238.87;51.67;;;;;;;;;;5032209;28;20284;-64
2022/01/11 02:14:00;;;;;;;328.80;63.00;;;;;;;;;;5030985;28;20704;-64
2022/01/11 02:16:26;;;;;;;289.13;59.63;;;;;;;;;;5030699;28;20284;-64
2022/01/11 02:18:53;;;;;;;295.77;64.10;;;;;;;;;;5032123;28;20639;-65
2022/01/11 02:21:19;;;;;;;307.27;65.40;;;;;;;;;;5029927;28;20392;-65
2022/01/11 02:23:45;;;;;;;340.77;64.30;;;;;;;;;;5030831;28;20296;-65
2022/01/11 02:26:11;;;;;;;304.00;61.90;;;;;;;;;;5031009;28;20650;-65
2022/01/11 02:28:39;;;;;;;267.03;60.00;;;;;;;;;;5031153;28;20319;-64
2022/01/11 02:31:07;;;;;;;270.07;58.47;;;;;;;;;;5031119;28;20379;-64
2022/01/11 02:33:34;;;;;;;235.57;52.97;;;;;;;;;;5031983;28;20285;-65
2022/01/11 02:36:04;;;;;;;262.77;56.17;;;;;;;;;;5030171;28;20837;-65
2022/01/11 02:38:30;;;;;;;212.70;48.77;;;;;;;;;;5030083;28;20299;-64
2022/01/11 02:40:58;;;;;;;288.70;56.23;;;;;;;;;;5031033;28;20284;-64
2022/01/11 02:43:24;;;;;;;253.80;56.50;;;;;;;;;;5028369;28;20794;-65
2022/01/11 02:45:50;;;;;;;239.23;55.90;;;;;;;;;;5031126;28;20770;-65
2022/01/11 02:48:16;;;;;;;240.90;56.27;;;;;;;;;;5031095;28;20791;-65
2022/01/11 02:50:44;;;;;;;182.17;45.93;;;;;;;;;;5030800;28;20311;-65
2022/01/11 02:53:10;;;;;;;214.47;47.90;;;;;;;;;;5030988;28;20283;-65
2022/01/11 02:55:38;;;;;;;179.33;45.40;;;;;;;;;;5029844;28;20292;-65
2022/01/11 02:58:04;;;;;;;204.23;51.53;;;;;;;;;;5031042;28;20283;-65
2022/01/11 03:00:30;;;;;;;199.53;48.13;;;;;;;;;;5030623;28;20300;-65
2022/01/11 03:02:56;;;;;;;195.07;49.83;;;;;;;;;;5031094;28;20345;-65
2022/01/11 03:05:22;;;;;;;183.40;47.90;;;;;;;;;;5030081;28;20295;-64
2022/01/11 03:07:48;;;;;;;166.53;44.83;;;;;;;;;;5031144;28;20314;-65
2022/01/11 03:12:43;;;;;;;200.40;44.97;;;;;;;;;;5030366;28;20288;-65
2022/01/11 03:15:09;;;;;;;206.17;50.17;;;;;;;;;;5029497;28;21092;-65
2022/01/11 03:17:35;;;;;;;211.03;52.77;;;;;;;;;;5030810;28;20327;-65
2022/01/11 03:20:01;;;;;;;244.13;55.50;;;;;;;;;;5029621;28;20334;-64
2022/01/11 03:22:27;;;;;;;181.07;48.53;;;;;;;;;;5030844;28;20311;-65
2022/01/11 03:24:53;;;;;;;264.80;56.63;;;;;;;;;;5030786;28;20283;-65
2022/01/11 03:27:19;;;;;;;211.17;51.93;;;;;;;;;;5029018;28;20292;-65
2022/01/11 03:29:45;;;;;;;219.67;54.30;;;;;;;;;;5028804;28;20049;-65
2022/01/11 03:32:15;;;;;;;258.87;62.57;;;;;;;;;;5030514;28;21177;-65
2022/01/11 03:34:41;;;;;;;249.07;59.40;;;;;;;;;;5032217;28;20291;-64
2022/01/11 03:37:10;;;;;;;228.07;56.40;;;;;;;;;;5030798;28;20296;-65
2022/01/11 03:39:36;;;;;;;175.47;51.10;;;;;;;;;;5036245;28;20875;-65
2022/01/11 03:42:02;;;;;;;252.30;60.33;;;;;;;;;;5031911;28;20288;-65
2022/01/11 03:44:28;;;;;;;224.90;54.90;;;;;;;;;;5030161;28;20285;-65
2022/01/11 03:46:54;;;;;;;185.57;54.23;;;;;;;;;;5028253;28;20371;-65
2022/01/11 03:49:20;;;;;;;262.43;58.93;;;;;;;;;;5029746;28;20383;-65
2022/01/11 03:51:49;;;;;;;220.73;54.63;;;;;;;;;;5029936;28;20048;-66
2022/01/11 03:54:22;;;;;;;200.90;52.47;;;;;;;;;;5029064;28;20058;-65
2022/01/11 03:56:48;;;;;;;173.85;50.20;;;;;;;;;;5028743;28;20292;-65
2022/01/11 03:59:14;;;;;;;234.67;58.70;;;;;;;;;;5028666;28;20083;-65
2022/01/11 04:01:40;;;;;;;258.17;60.57;;;;;;;;;;5030052;28;20291;-65
2022/01/11 04:04:07;;;;;;;244.00;56.37;;;;;;;;;;5029976;28;20280;-65
2022/01/11 04:06:33;;;;;;;241.23;54.23;;;;;;;;;;5029955;28;20365;-65
2022/01/11 04:08:59;;;;;;;270.57;58.97;;;;;;;;;;5027893;28;20403;-66
2022/01/11 04:11:25;;;;;;;300.77;61.80;;;;;;;;;;5029022;28;20715;-65
2022/01/11 04:13:51;;;;;;;285.60;58.77;;;;;;;;;;5028624;28;20045;-65
2022/01/11 04:16:17;;;;;;;282.77;59.47;;;;;;;;;;5028243;28;20066;-65
2022/01/11 04:18:43;;;;;;;281.83;58.03;;;;;;;;;;5027253;28;20362;-65
2022/01/11 04:21:09;;;;;;;283.80;60.37;;;;;;;;;;5028025;28;20288;-66
2022/01/11 04:23:35;;;;;;;245.90;56.03;;;;;;;;;;5028403;28;20495;-65
2022/01/11 04:26:02;;;;;;;267.40;57.93;;;;;;;;;;5029938;28;20308;-65
2022/01/11 04:28:28;;;;;;;239.20;56.70;;;;;;;;;;5028198;28;20316;-65
2022/01/11 04:30:58;;;;;;;293.13;61.27;;;;;;;;;;5029263;28;20277;-65
2022/01/11 04:33:24;;;;;;;283.13;61.37;;;;;;;;;;5027003;28;20316;-65
2022/01/11 04:35:51;;;;;;;270.47;60.17;;;;;;;;;;5028867;28;20315;-65
2022/01/11 04:38:17;;;;;;;245.00;63.87;;;;;;;;;;5029396;28;20364;-65
2022/01/11 04:40:44;;;;;;;297.90;62.67;;;;;;;;;;5028830;28;20323;-66
2022/01/11 04:43:10;;;;;;;216.47;55.53;;;;;;;;;;5028730;28;20311;-65
2022/01/11 04:45:36;;;;;;;218.50;57.80;;;;;;;;;;5028732;28;20320;-65
2022/01/11 04:48:02;;;;;;;245.53;57.23;;;;;;;;;;5027989;28;20394;-65
2022/01/11 04:50:28;;;;;;;245.53;60.33;;;;;;;;;;5028880;28;20288;-65
2022/01/11 04:52:55;;;;;;;225.80;57.70;;;;;;;;;;5029071;28;20280;-65
2022/01/11 04:55:21;;;;;;;249.23;61.20;;;;;;;;;;5028542;28;20291;-65
2022/01/11 04:57:47;;;;;;;198.27;54.13;;;;;;;;;;5028592;28;20292;-65
2022/01/11 05:00:14;;;;;;;147.90;47.43;;;;;;;;;;5028102;28;20658;-65
2022/01/11 05:02:40;;;;;;;177.07;52.17;;;;;;;;;;5028893;28;20285;-66
2022/01/11 05:05:07;;;;;;;163.63;50.93;;;;;;;;;;5027577;28;20693;-66
2022/01/11 05:07:33;;;;;;;163.50;50.47;;;;;;;;;;5009135;28;20307;-65
2022/01/11 05:09:59;;;;;;;174.43;49.27;;;;;;;;;;5024999;28;20297;-65
2022/01/11 05:12:25;;;;;;;122.77;43.27;;;;;;;;;;5028924;28;20345;-65
2022/01/11 05:14:51;;;;;;;136.43;49.07;;;;;;;;;;5027711;28;20391;-65
2022/01/11 05:17:17;;;;;;;143.13;47.67;;;;;;;;;;5028018;28;21028;-65
2022/01/11 05:19:43;;;;;;;142.00;45.13;;;;;;;;;;5028454;28;20137;-65
2022/01/11 05:22:09;;;;;;;147.97;50.13;;;;;;;;;;5028461;28;20295;-65
2022/01/11 05:24:35;;;;;;;127.40;46.30;;;;;;;;;;5028915;28;20319;-65
2022/01/11 05:27:01;;;;;;;112.43;41.50;;;;;;;;;;5028441;28;20281;-65
2022/01/11 05:29:27;;;;;;;171.50;54.47;;;;;;;;;;5028385;28;20354;-66
2022/01/11 05:31:53;;;;;;;161.17;50.20;;;;;;;;;;5029831;28;20288;-66
2022/01/11 05:34:19;;;;;;;143.97;48.63;;;;;;;;;;5033176;28;20284;-65
2022/01/11 05:36:45;;;;;;;161.27;49.10;;;;;;;;;;5034748;28;20294;-66
2022/01/11 05:39:11;;;;;;;168.87;51.40;;;;;;;;;;5035173;28;20315;-66
2022/01/11 05:41:37;;;;;;;152.70;52.67;;;;;;;;;;5034437;28;20303;-65
2022/01/11 05:44:03;;;;;;;145.87;49.90;;;;;;;;;;5035074;28;20295;-65
2022/01/11 05:46:31;;;;;;;140.03;46.63;;;;;;;;;;5035107;28;20287;-65
2022/01/11 05:48:57;;;;;;;131.37;45.00;;;;;;;;;;5034259;28;20681;-66
2022/01/11 05:51:25;;;;;;;119.30;42.37;;;;;;;;;;5035085;28;20299;-65
2022/01/11 05:53:51;;;;;;;107.83;40.17;;;;;;;;;;5037893;28;20299;-65
2022/01/11 05:56:17;;;;;;;94.47;37.13;;;;;;;;;;5034848;28;20288;-65
2022/01/11 05:58:43;;;;;;;92.43;37.67;;;;;;;;;;5033205;28;20646;-65
2022/01/11 06:01:09;;;;;;;96.87;36.73;;;;;;;;;;5034676;28;20415;-66
2022/01/11 06:03:35;;;;;;;91.97;36.03;;;;;;;;;;5032971;28;20292;-65
2022/01/11 06:06:01;;;;;;;96.10;36.03;;;;;;;;;;5016727;28;20284;-65
2022/01/11 06:08:27;;;;;;;100.77;37.03;;;;;;;;;;5035016;28;20307;-65
2022/01/11 06:10:53;;;;;;;87.87;37.23;;;;;;;;;;5033537;28;20403;-64
2022/01/11 06:13:19;;;;;;;86.27;35.83;;;;;;;;;;5033048;28;20365;-65
2022/01/11 06:15:45;;;;;;;82.57;34.47;;;;;;;;;;5034795;28;20288;-65
2022/01/11 06:18:11;;;;;;;81.53;32.43;;;;;;;;;;5023681;28;20856;-65
2022/01/11 06:20:37;;;;;;;80.80;34.23;;;;;;;;;;5016686;28;20056;-65
2022/01/11 06:23:03;;;;;;;80.83;35.10;;;;;;;;;;5043121;28;20284;-66
2022/01/11 06:25:29;;;;;;;75.83;31.70;;;;;;;;;;5044566;28;20370;-65
2022/01/11 06:27:55;;;;;;;75.10;31.27;;;;;;;;;;5047360;28;20425;-65
2022/01/11 06:30:22;;;;;;;70.50;32.30;;;;;;;;;;5046577;28;20295;-65
2022/01/11 06:32:48;;;;;;;75.47;31.50;;;;;;;;;;5053135;28;20345;-65
2022/01/11 06:35:16;;;;;;;63.13;29.43;;;;;;;;;;5043591;28;20287;-65
2022/01/11 06:37:42;;;;;;;75.23;32.37;;;;;;;;;;5045410;28;20288;-65
2022/01/11 06:40:08;;;;;;;62.70;29.13;;;;;;;;;;5043837;28;20297;-65
2022/01/11 06:42:35;;;;;;;66.23;30.47;;;;;;;;;;5042676;28;20288;-65
2022/01/11 06:45:01;;;;;;;74.70;29.93;;;;;;;;;;5030345;28;20646;-65
2022/01/11 06:47:27;;;;;;;69.60;29.10;;;;;;;;;;5031610;28;20363;-65
2022/01/11 06:49:53;;;;;;;63.33;27.93;;;;;;;;;;5031241;28;20404;-65
2022/01/11 06:52:19;;;;;;;69.97;28.47;;;;;;;;;;5030096;28;20399;-65
2022/01/11 06:54:45;;;;;;;58.23;26.60;;;;;;;;;;5031312;28;20514;-65
2022/01/11 06:57:11;;;;;;;65.80;26.13;;;;;;;;;;5029896;28;20107;-65
2022/01/11 06:59:37;;;;;;;56.60;25.97;;;;;;;;;;5031210;28;20050;-65
2022/01/11 07:02:04;;;;;;;59.03;23.73;;;;;;;;;;5030947;28;20699;-65
2022/01/11 07:04:30;;;;;;;63.77;27.67;;;;;;;;;;5037319;28;20362;-65
2022/01/11 07:06:56;;;;;;;56.33;24.00;;;;;;;;;;5051212;28;20283;-66
2022/01/11 07:09:22;;;;;;;59.80;25.53;;;;;;;;;;5050733;28;20399;-65
2022/01/11 07:11:48;;;;;;;60.70;25.20;;;;;;;;;;5042504;28;20371;-65
2022/01/11 07:14:14;;;;;;;55.03;24.73;;;;;;;;;;5039713;28;20537;-65
2022/01/11 07:16:42;;;;;;;57.73;23.93;;;;;;;;;;5019511;28;20305;-65
2022/01/11 07:19:08;;;;;;;58.83;24.93;;;;;;;;;;5010720;28;20771;-65
2022/01/11 07:21:38;;;;;;;58.50;24.33;;;;;;;;;;5010652;28;20293;-65
2022/01/11 07:24:04;;;;;;;49.13;23.57;;;;;;;;;;5010729;28;20287;-64
2022/01/11 07:26:32;;;;;;;58.77;23.90;;;;;;;;;;5009486;28;20636;-65
2022/01/11 07:28:58;;;;;;;64.97;25.67;;;;;;;;;;5009943;28;20837;-65
2022/01/11 07:31:24;;;;;;;52.60;22.63;;;;;;;;;;5009875;28;20706;-65
2022/01/11 07:33:50;;;;;;;58.53;23.77;;;;;;;;;;5009871;28;20287;-65
2022/01/11 07:36:16;;;;;;;54.90;24.23;;;;;;;;;;5009968;28;20288;-65
2022/01/11 07:38:42;;;;;;;61.33;24.03;;;;;;;;;;5009967;28;20504;-65
2022/01/11 07:41:08;;;;;;;53.17;23.20;;;;;;;;;;5009199;28;20140;-65
2022/01/11 07:43:34;;;;;;;54.47;24.63;;;;;;;;;;5008377;28;20145;-66
2022/01/11 07:46:00;;;;;;;53.27;23.97;;;;;;;;;;5024839;28;20655;-65
2022/01/11 07:48:26;;;;;;;61.97;24.50;;;;;;;;;;5009743;28;20304;-65
2022/01/11 07:50:52;;;;;;;59.23;26.03;;;;;;;;;;5009448;28;20076;-65
2022/01/11 07:53:18;;;;;;;63.10;26.20;;;;;;;;;;5024801;28;20706;-65
2022/01/11 07:55:44;;;;;;;62.70;25.40;;;;;;;;;;5008038;28;20050;-65
2022/01/11 07:58:10;;;;;;;56.07;26.30;;;;;;;;;;5008248;28;20050;-65
2022/01/11 08:00:36;;;;;;;73.10;25.73;;;;;;;;;;5009537;28;20056;-65
2022/01/11 08:03:02;;;;;;;73.73;29.57;;;;;;;;;;5009326;28;20042;-65
2022/01/11 08:05:28;;;;;;;61.00;27.73;;;;;;;;;;5009340;28;20296;-65
2022/01/11 08:07:54;;;;;;;66.90;29.30;;;;;;;;;;5009298;28;20296;-65
2022/01/11 08:10:20;;;;;;;83.17;30.10;;;;;;;;;;5009412;28;20775;-65
2022/01/11 08:12:46;;;;;;;79.00;28.83;;;;;;;;;;5009206;28;21869;-66
2022/01/11 08:15:13;;;;;;;79.23;29.60;;;;;;;;;;5009118;28;20277;-65
2022/01/11 08:17:39;;;;;;;71.80;28.90;;;;;;;;;;5009202;28;20301;-65
2022/01/11 08:20:06;;;;;;;70.03;28.83;;;;;;;;;;5007964;28;20297;-66
2022/01/11 08:22:32;;;;;;;77.33;29.77;;;;;;;;;;5009193;28;20327;-65
2022/01/11 08:24:58;;;;;;;76.10;30.27;;;;;;;;;;5009292;28;20424;-66
2022/01/11 08:27:24;;;;;;;83.83;31.50;;;;;;;;;;5011315;28;20403;-65
2022/01/11 08:29:50;;;;;;;76.13;29.43;;;;;;;;;;5031723;28;20801;-66
2022/01/11 08:32:17;;;;;;;89.93;31.63;;;;;;;;;;5034608;28;20934;-66
2022/01/11 08:34:43;;;;;;;87.33;31.77;;;;;;;;;;5038709;28;20284;-66
2022/01/11 08:37:09;;;;;;;80.87;32.33;;;;;;;;;;5029141;28;20359;-66
2022/01/11 08:39:36;;;;;;;88.87;32.33;;;;;;;;;;5032518;28;20802;-66
2022/01/11 08:42:02;;;;;;;84.97;33.10;;;;;;;;;;5027942;28;20300;-66
2022/01/11 08:44:28;;;;;;;96.43;31.43;;;;;;;;;;5028903;28;20287;-66
2022/01/11 08:46:54;;;;;;;92.53;32.83;;;;;;;;;;5028938;28;20805;-66
2022/01/11 08:49:22;;;;;;;80.77;33.43;;;;;;;;;;5029786;28;21239;-66
2022/01/11 08:51:48;;;;;;;79.43;31.30;;;;;;;;;;5030240;28;20288;-67
2022/01/11 08:54:14;;;;;;;80.63;34.27;;;;;;;;;;5028737;28;20705;-66
2022/01/11 08:56:40;;;;;;;95.33;33.93;;;;;;;;;;5013520;28;20361;-66
2022/01/11 08:59:07;;;;;;;82.07;32.30;;;;;;;;;;5035317;28;20296;-67
2022/01/11 09:01:34;;;;;;;85.70;33.13;;;;;;;;;;5033528;28;20307;-66
2022/01/11 09:04:01;;;;;;;74.90;31.10;;;;;;;;;;5024182;28;20631;-67
2022/01/11 09:06:27;;;;;;;89.57;31.57;;;;;;;;;;5028534;28;20289;-67
2022/01/11 09:08:53;;;;;;;78.47;31.97;;;;;;;;;;5028755;28;20347;-67
2022/01/11 09:11:19;;;;;;;88.93;33.27;;;;;;;;;;5028469;28;20323;-67
2022/01/11 09:13:45;;;;;;;86.03;30.93;;;;;;;;;;5025547;28;20328;-67
2022/01/11 09:16:11;;;;;;;69.23;29.10;;;;;;;;;;5026407;28;20292;-66
2022/01/11 09:18:38;;;;;;;86.83;32.67;;;;;;;;;;5028627;28;20307;-67
2022/01/11 09:21:05;;;;;;;78.10;31.60;;;;;;;;;;5027820;28;20825;-67
2022/01/11 09:23:31;;;;;;;83.30;32.63;;;;;;;;;;5026963;28;20303;-67
2022/01/11 09:25:58;;;;;;;83.17;31.83;;;;;;;;;;5028805;28;20342;-67
2022/01/11 09:28:24;;;;;;;69.33;31.07;;;;;;;;;;5027090;28;20441;-67
2022/01/11 09:30:50;;;;;;;78.03;30.83;;;;;;;;;;5028790;28;20288;-66
2022/01/11 09:33:17;;;;;;;62.23;29.10;;;;;;;;;;5028605;28;20284;-67
2022/01/11 09:35:43;;;;;;;78.27;29.90;;;;;;;;;;5028235;28;20715;-67
2022/01/11 09:38:09;;;;;;;72.53;30.17;;;;;;;;;;5028747;28;20292;-67
2022/01/11 09:40:35;;;;;;;66.10;28.67;;;;;;;;;;5026242;28;20789;-67
2022/01/11 09:43:01;;;;;;;74.23;29.73;;;;;;;;;;5046396;28;20291;-67
2022/01/11 09:45:27;;;;;;;70.97;30.33;;;;;;;;;;5034463;28;20295;-67
2022/01/11 09:47:53;;;;;;;74.90;31.17;;;;;;;;;;5047488;28;20378;-67
2022/01/11 09:50:20;;;;;;;68.20;28.67;;;;;;;;;;5035510;28;20371;-68
2022/01/11 09:52:46;;;;;;;76.63;31.03;;;;;;;;;;5028389;28;20045;-68
2022/01/11 09:55:13;;;;;;;76.33;29.70;;;;;;;;;;5027237;28;20292;-68
2022/01/11 09:57:40;;;;;;;63.93;28.40;;;;;;;;;;5033647;28;20049;-68
2022/01/11 10:00:07;;;;;;;69.37;28.97;;;;;;;;;;5034782;28;20290;-68
2022/01/11 10:02:33;;;;;;;79.63;31.40;;;;;;;;;;5028275;28;21242;-68
2022/01/11 10:05:02;;;;;;;67.90;29.30;;;;;;;;;;5026812;28;20307;-68
2022/01/11 10:07:29;;;;;;;77.33;30.63;;;;;;;;;;5027986;28;20820;-68
2022/01/11 10:09:55;;;;;;;64.73;27.17;;;;;;;;;;5026692;28;20359;-65
2022/01/11 10:12:22;;;;;;;57.00;27.70;;;;;;;;;;5027273;28;20288;-65
2022/01/11 10:14:56;;;;;;;71.30;30.90;;;;;;;;;;5027824;28;20295;-65
2022/01/11 10:17:27;;;;;;;65.32;30.85;;;;;;;;;;5026772;28;20300;-65
2022/01/11 10:20:05;;;;;;;70.17;29.93;;;;;;;;;;5030861;28;20049;-65
2022/01/11 10:22:31;;;;;;;62.77;29.27;;;;;;;;;;5030938;28;20296;-65
2022/01/11 10:24:58;;;;;;;59.67;28.07;;;;;;;;;;5031926;28;20284;-65
2022/01/11 10:27:26;;;;;;;57.70;26.93;;;;;;;;;;5031061;28;20825;-65
2022/01/11 10:29:54;;;;;;;68.60;29.53;;;;;;;;;;5031495;28;20374;-65
2022/01/11 10:32:26;;;;;;;66.70;29.27;;;;;;;;;;5031593;28;20312;-65
2022/01/11 10:34:56;;;;;;;56.27;27.40;;;;;;;;;;5030307;28;20284;-68
2022/01/11 10:37:30;;;;;;;65.07;31.33;;;;;;;;;;5013613;28;20295;-68
2022/01/11 10:40:01;;;;;;;56.90;27.87;;;;;;;;;;5030004;28;20300;-67
2022/01/11 10:42:28;;;;;;;57.50;26.37;;;;;;;;;;5030062;28;20295;-68
2022/01/11 10:44:54;;;;;;;62.57;27.23;;;;;;;;;;5031145;28;20287;-68
2022/01/11 10:47:22;;;;;;;61.07;28.20;;;;;;;;;;5031174;28;20276;-67
2022/01/11 10:49:49;;;;;;;57.00;26.30;;;;;;;;;;5029987;28;20312;-67
2022/01/11 10:52:25;;;;;;;55.87;27.87;;;;;;;;;;5031564;28;20649;-67
2022/01/11 10:54:52;;;;;;;54.87;24.60;;;;;;;;;;5031132;28;20836;-66
2022/01/11 10:57:18;;;;;;;48.73;24.20;;;;;;;;;;5030119;28;20284;-66
2022/01/11 11:00:02;;;;;;;54.57;24.57;;;;;;;;;;5032859;28;20304;-66
2022/01/11 11:02:28;;;;;;;44.97;23.73;;;;;;;;;;5030045;28;20492;-66
2022/01/11 11:04:55;;;;;;;50.23;24.37;;;;;;;;;;5031373;28;20330;-66
2022/01/11 11:07:23;;;;;;;48.87;26.03;;;;;;;;;;5049575;28;20087;-66
2022/01/11 11:09:50;;;;;;;54.83;27.90;;;;;;;;;;5038778;28;20335;-67
2022/01/11 11:12:17;;;;;;;59.57;30.07;;;;;;;;;;5032864;28;20284;-67
2022/01/11 11:14:53;;;;;;;47.73;26.03;;;;;;;;;;5031028;28;20042;-67
2022/01/11 11:17:29;;;;;;;42.00;23.27;;;;;;;;;;5028961;28;20284;-67
2022/01/11 11:19:59;;;;;;;35.47;22.27;;;;;;;;;;5011098;28;20866;-68
2022/01/11 11:22:26;;;;;;;34.60;19.47;;;;;;;;;;5011250;28;20050;-66
2022/01/11 11:24:55;;;;;;;29.27;18.13;;;;;;;;;;5011066;28;20052;-67
2022/01/11 11:27:23;;;;;;;27.77;16.43;;;;;;;;;;5020474;28;20042;-67
2022/01/11 11:29:49;;;;;;;31.10;18.03;;;;;;;;;;5033195;28;20049;-66
2022/01/11 11:32:17;;;;;;;30.53;17.57;;;;;;;;;;5037926;28;20906;-67
2022/01/11 11:34:45;;;;;;;32.40;17.73;;;;;;;;;;5027211;28;20127;-67
2022/01/11 11:37:11;;;;;;;31.33;17.03;;;;;;;;;;5029657;28;20065;-67
2022/01/11 11:39:39;;;;;;;30.60;17.10;;;;;;;;;;5029226;28;20049;-67
2022/01/11 11:42:05;;;;;;;35.07;19.00;;;;;;;;;;5028259;28;20042;-67
2022/01/11 11:44:36;;;;;;;34.80;17.70;;;;;;;;;;5028884;28;20056;-67
2022/01/11 11:47:06;;;;;;;32.27;18.40;;;;;;;;;;5029889;28;20284;-67
2022/01/11 11:49:47;;;;;;;31.43;17.67;;;;;;;;;;5030430;28;20392;-67
2022/01/11 11:52:20;;;;;;;31.73;17.50;;;;;;;;;;5030396;28;20042;-67
2022/01/11 11:54:54;;;;;;;29.47;18.00;;;;;;;;;;5029515;28;20120;-67
2022/01/11 11:57:20;;;;;;;;;;;;;;;;;;5030098;28;20048;-67
2022/01/11 12:00:00;;;;;;;32.73;15.93;;;;;;;;;;5029635;28;19921;-67
2022/01/11 12:02:34;;;;;;;29.23;16.07;;;;;;;;;;5040072;28;20128;-68
2022/01/11 12:05:00;;;;;;;31.20;17.43;;;;;;;;;;5044232;28;20073;-67
2022/01/11 12:07:29;;;;;;;28.57;16.53;;;;;;;;;;5037094;28;20099;-68
2022/01/11 12:09:55;;;;;;;25.67;15.27;;;;;;;;;;5011433;28;20111;-68
2022/01/11 12:12:40;;;;;;;26.57;14.87;;;;;;;;;;5027674;28;21044;-67
2022/01/11 12:15:31;;;;;;;29.57;15.07;;;;;;;;;;5027849;28;20582;-68
2022/01/11 12:17:57;;;;;;;32.47;16.30;;;;;;;;;;5007384;28;20093;-68
2022/01/11 12:20:42;;;;;;;32.03;17.20;;;;;;;;;;5035498;28;20112;-68
2022/01/11 12:23:09;;;;;;;30.77;16.37;;;;;;;;;;5027555;28;20048;-68
2022/01/11 12:25:42;;;;;;;25.67;15.17;;;;;;;;;;5028460;28;20494;-68
2022/01/11 12:28:14;;;;;;;27.80;16.52;;;;;;;;;;5029274;28;20496;-68
2022/01/11 12:30:40;;;;;;;26.07;15.97;;;;;;;;;;5027658;28;20049;-68
2022/01/11 12:33:16;;;;;;;27.10;15.63;;;;;;;;;;5028528;28;20045;-68
2022/01/11 12:35:57;;;;;;;25.03;14.80;;;;;;;;;;5010761;28;20049;-68
2022/01/11 12:38:24;;;;;;;24.20;15.17;;;;;;;;;;5028614;28;20045;-68
2022/01/11 12:40:50;;;;;;;27.60;13.73;;;;;;;;;;5028886;28;20057;-68
2022/01/11 12:43:35;;;;;;;23.97;13.60;;;;;;;;;;5027428;28;20076;-68
2022/01/11 12:46:04;;;;;;;22.13;13.10;;;;;;;;;;5026563;28;20053;-68
2022/01/11 12:48:47;;;;;;;24.70;14.93;;;;;;;;;;5029359;28;20104;-68
2022/01/11 12:51:23;;;;;;;26.00;14.80;;;;;;;;;;5027874;28;20500;-68
2022/01/11 12:53:51;;;;;;;26.30;14.97;;;;;;;;;;5027892;28;20037;-68
2022/01/11 12:56:18;;;;;;;24.77;14.27;;;;;;;;;;5029118;28;20049;-68
2022/01/11 12:58:47;;;;;;;25.43;14.67;;;;;;;;;;5027904;28;20057;-68
2022/01/11 13:01:19;;;;;;;24.60;14.80;;;;;;;;;;5025116;28;20503;-67
2022/01/11 13:03:55;;;;;;;25.80;14.13;;;;;;;;;;5041447;28;20045;-67
2022/01/11 13:06:22;;;;;;;25.37;14.80;;;;;;;;;;5027036;28;20136;-67
2022/01/11 13:08:52;;;;;;;26.10;15.67;;;;;;;;;;5026951;28;20507;-67
2022/01/11 13:11:19;;;;;;;27.80;15.03;;;;;;;;;;5028062;28;20049;-67
2022/01/11 13:13:54;;;;;;;26.07;14.30;;;;;;;;;;5029032;28;20482;-67
2022/01/11 13:16:21;;;;;;;30.40;15.87;;;;;;;;;;5026257;28;20065;-68
2022/01/11 13:18:47;;;;;;;27.50;15.50;;;;;;;;;;5026800;28;20874;-67
2022/01/11 13:21:13;;;;;;;26.77;15.07;;;;;;;;;;5027191;28;20128;-67
2022/01/11 13:23:58;;;;;;;28.50;13.83;;;;;;;;;;5026944;28;20049;-68
2022/01/11 13:26:26;;;;;;;29.87;15.43;;;;;;;;;;5026411;28;20087;-68
2022/01/11 13:28:55;;;;;;;28.23;14.07;;;;;;;;;;5027879;28;20091;-67
2022/01/11 13:31:25;;;;;;;32.93;17.80;;;;;;;;;;5029011;28;20049;-67
2022/01/11 13:34:03;;;;;;;29.23;15.83;;;;;;;;;;5026536;28;20181;-68
2022/01/11 13:36:38;;;;;;;29.80;14.90;;;;;;;;;;5026622;28;20606;-67
2022/01/11 13:39:14;;;;;;;25.77;14.67;;;;;;;;;;5027706;28;20515;-67
2022/01/11 13:41:45;;;;;;;28.77;16.33;;;;;;;;;;5026579;28;20427;-68
2022/01/11 13:44:17;;;;;;;27.43;15.93;;;;;;;;;;5033915;28;20063;-68
2022/01/11 13:46:44;;;;;;;29.80;15.37;;;;;;;;;;5007324;28;20037;-68
2022/01/11 13:49:15;;;;;;;27.00;14.93;;;;;;;;;;5037020;28;20076;-68
2022/01/11 13:51:43;;;;;;;28.47;16.43;;;;;;;;;;5024413;28;20120;-68
2022/01/11 13:54:09;;;;;;;28.80;15.33;;;;;;;;;;5031302;28;20057;-68
2022/01/11 13:56:42;;;;;;;34.50;16.87;;;;;;;;;;5048987;28;20052;-67
2022/01/11 13:59:09;;;;;;;31.80;15.63;;;;;;;;;;5032361;28;20150;-67
2022/01/11 14:01:35;;;;;;;27.83;14.70;;;;;;;;;;5032340;28;20057;-67
2022/01/11 14:04:09;;;;;;;33.50;16.47;;;;;;;;;;5031848;28;20057;-67
2022/01/11 14:06:41;;;;;;;29.60;14.93;;;;;;;;;;5031721;28;20057;-67
2022/01/11 14:09:11;;;;;;;28.00;14.07;;;;;;;;;;5037751;28;20515;-68
2022/01/11 14:11:40;;;;;;;28.53;14.77;;;;;;;;;;5033126;28;20532;-67
2022/01/11 14:14:07;;;;;;;28.70;15.30;;;;;;;;;;5031202;28;20080;-67
2022/01/11 14:16:34;;;;;;;26.87;15.17;;;;;;;;;;5037990;28;20057;-67
2022/01/11 14:19:09;;;;;;;27.30;15.33;;;;;;;;;;5031786;28;20099;-67
2022/01/11 14:21:54;;;;;;;29.40;15.23;;;;;;;;;;5033131;28;20490;-68